sensor_id;sensor_type;location;lat;lon;timestamp;pressure;altitude;pressure_sealevel;temperature;humidity
16544;BME280;8384;47.996;7.786;2023-04-15T00:00:27;97815.75;;;6.64;55.77
16544;BME280;8384;47.996;7.786;2023-04-15T00:02:55;97814.97;;;6.68;55.76
16544;BME280;8384;47.996;7.786;2023-04-15T00:05:21;97795.00;;;6.52;55.94
16544;BME280;8384;47.996;7.786;2023-04-15T00:07:46;97814.72;;;6.70;55.86
16544;BME280;8384;47.996;7.786;2023-04-15T00:10:12;97780.06;;;6.50;55.69
16544;BME280;8384;47.996;7.786;2023-04-15T00:12:38;97809.03;;;6.71;55.14
16544;BME280;8384;47.996;7.786;2023-04-15T00:15:04;97798.16;;;6.71;55.49
16544;BME280;8384;47.996;7.786;2023-04-15T00:17:29;97775.88;;;6.69;54.97
16544;BME280;8384;47.996;7.786;2023-04-15T00:19:55;97804.31;;;6.94;54.59
16544;BME280;8384;47.996;7.786;2023-04-15T00:22:20;97805.66;;;6.92;54.23
16544;BME280;8384;47.996;7.786;2023-04-15T00:24:45;97808.66;;;6.95;54.70
16544;BME280;8384;47.996;7.786;2023-04-15T00:27:11;97795.34;;;6.94;54.30
16544;BME280;8384;47.996;7.786;2023-04-15T00:29:36;97814.97;;;7.01;54.84
16544;BME280;8384;47.996;7.786;2023-04-15T00:32:01;97776.81;;;6.85;54.22
16544;BME280;8384;47.996;7.786;2023-04-15T00:34:27;97788.50;;;6.86;54.41
16544;BME280;8384;47.996;7.786;2023-04-15T00:36:53;97786.16;;;7.05;53.61
16544;BME280;8384;47.996;7.786;2023-04-15T00:39:18;97798.16;;;7.09;53.78
16544;BME280;8384;47.996;7.786;2023-04-15T00:41:43;97768.09;;;6.83;54.24
16544;BME280;8384;47.996;7.786;2023-04-15T00:44:09;97807.94;;;7.10;53.48
16544;BME280;8384;47.996;7.786;2023-04-15T00:46:36;97780.19;;;7.03;53.08
16544;BME280;8384;47.996;7.786;2023-04-15T00:49:06;97803.66;;;7.19;53.43
16544;BME280;8384;47.996;7.786;2023-04-15T00:51:32;97805.53;;;7.14;53.68
16544;BME280;8384;47.996;7.786;2023-04-15T00:54:00;97796.88;;;7.22;53.02
16544;BME280;8384;47.996;7.786;2023-04-15T00:56:27;97788.44;;;7.18;52.99
16544;BME280;8384;47.996;7.786;2023-04-15T00:58:53;97776.13;;;7.05;53.39
16544;BME280;8384;47.996;7.786;2023-04-15T01:01:20;97800.16;;;7.24;52.65
16544;BME280;8384;47.996;7.786;2023-04-15T01:03:48;97787.41;;;7.25;53.04
16544;BME280;8384;47.996;7.786;2023-04-15T01:06:13;97791.47;;;7.27;53.26
16544;BME280;8384;47.996;7.786;2023-04-15T01:08:39;97784.13;;;7.23;53.02
16544;BME280;8384;47.996;7.786;2023-04-15T01:11:05;97768.56;;;7.18;52.43
16544;BME280;8384;47.996;7.786;2023-04-15T01:13:32;97753.84;;;7.03;52.87
16544;BME280;8384;47.996;7.786;2023-04-15T01:15:58;97760.63;;;7.01;52.72
16544;BME280;8384;47.996;7.786;2023-04-15T01:18:23;97772.63;;;7.10;52.80
16544;BME280;8384;47.996;7.786;2023-04-15T01:20:48;97778.59;;;7.12;52.20
16544;BME280;8384;47.996;7.786;2023-04-15T01:23:14;97752.44;;;6.96;52.77
16544;BME280;8384;47.996;7.786;2023-04-15T01:25:41;97769.34;;;7.08;53.44
16544;BME280;8384;47.996;7.786;2023-04-15T01:28:07;97728.94;;;6.79;53.22
16544;BME280;8384;47.996;7.786;2023-04-15T01:30:33;97788.09;;;7.04;53.16
16544;BME280;8384;47.996;7.786;2023-04-15T01:32:59;97761.09;;;6.93;53.11
16544;BME280;8384;47.996;7.786;2023-04-15T01:35:24;97763.81;;;6.93;53.56
16544;BME280;8384;47.996;7.786;2023-04-15T01:37:49;97750.75;;;6.89;54.20
16544;BME280;8384;47.996;7.786;2023-04-15T01:40:15;97775.56;;;7.03;54.06
16544;BME280;8384;47.996;7.786;2023-04-15T01:42:40;97748.84;;;6.90;54.04
16544;BME280;8384;47.996;7.786;2023-04-15T01:45:06;97725.16;;;6.80;53.63
16544;BME280;8384;47.996;7.786;2023-04-15T01:47:32;97727.59;;;6.77;53.51
16544;BME280;8384;47.996;7.786;2023-04-15T01:49:57;97748.88;;;6.95;53.70
16544;BME280;8384;47.996;7.786;2023-04-15T01:52:22;97766.91;;;7.07;53.49
16544;BME280;8384;47.996;7.786;2023-04-15T01:54:48;97745.38;;;6.95;53.36
16544;BME280;8384;47.996;7.786;2023-04-15T01:57:13;97773.13;;;7.07;53.70
16544;BME280;8384;47.996;7.786;2023-04-15T01:59:38;97775.28;;;7.05;53.37
16544;BME280;8384;47.996;7.786;2023-04-15T02:02:05;97772.38;;;7.12;53.17
16544;BME280;8384;47.996;7.786;2023-04-15T02:04:30;97761.75;;;7.10;53.43
16544;BME280;8384;47.996;7.786;2023-04-15T02:06:55;97766.22;;;7.27;53.64
16544;BME280;8384;47.996;7.786;2023-04-15T02:09:21;97775.16;;;7.27;53.56
16544;BME280;8384;47.996;7.786;2023-04-15T02:11:46;97726.34;;;6.95;53.33
16544;BME280;8384;47.996;7.786;2023-04-15T02:14:11;97741.38;;;7.08;53.57
16544;BME280;8384;47.996;7.786;2023-04-15T02:16:37;97770.00;;;7.26;53.54
16544;BME280;8384;47.996;7.786;2023-04-15T02:19:02;97774.63;;;7.30;53.63
16544;BME280;8384;47.996;7.786;2023-04-15T02:21:28;97750.63;;;7.12;53.68
16544;BME280;8384;47.996;7.786;2023-04-15T02:23:54;97756.28;;;7.05;54.19
16544;BME280;8384;47.996;7.786;2023-04-15T02:26:20;97757.38;;;7.09;53.47
16544;BME280;8384;47.996;7.786;2023-04-15T02:28:46;97769.72;;;7.27;53.63
16544;BME280;8384;47.996;7.786;2023-04-15T02:31:12;97762.09;;;7.24;54.06
16544;BME280;8384;47.996;7.786;2023-04-15T02:33:37;97752.03;;;7.19;53.60
16544;BME280;8384;47.996;7.786;2023-04-15T02:36:03;97766.47;;;7.30;52.96
16544;BME280;8384;47.996;7.786;2023-04-15T02:38:28;97762.09;;;7.24;53.27
16544;BME280;8384;47.996;7.786;2023-04-15T02:40:55;97770.88;;;7.42;52.89
16544;BME280;8384;47.996;7.786;2023-04-15T02:43:21;97724.75;;;6.99;53.14
16544;BME280;8384;47.996;7.786;2023-04-15T02:45:46;97767.06;;;7.38;53.36
16544;BME280;8384;47.996;7.786;2023-04-15T02:48:12;97762.19;;;7.40;52.98
16544;BME280;8384;47.996;7.786;2023-04-15T02:50:37;97730.31;;;7.25;52.70
16544;BME280;8384;47.996;7.786;2023-04-15T02:53:05;97748.81;;;7.33;53.05
16544;BME280;8384;47.996;7.786;2023-04-15T02:55:31;97746.13;;;7.38;53.19
16544;BME280;8384;47.996;7.786;2023-04-15T02:57:56;97754.91;;;7.50;53.32
16544;BME280;8384;47.996;7.786;2023-04-15T03:00:24;97746.13;;;7.38;53.36
16544;BME280;8384;47.996;7.786;2023-04-15T03:02:50;97771.19;;;7.45;53.81
16544;BME280;8384;47.996;7.786;2023-04-15T03:05:20;97758.63;;;7.39;53.96
16544;BME280;8384;47.996;7.786;2023-04-15T03:07:47;97746.66;;;7.35;53.89
16544;BME280;8384;47.996;7.786;2023-04-15T03:10:13;97750.50;;;7.44;53.52
16544;BME280;8384;47.996;7.786;2023-04-15T03:12:38;97739.09;;;7.47;52.53
16544;BME280;8384;47.996;7.786;2023-04-15T03:15:05;97752.16;;;7.45;53.09
16544;BME280;8384;47.996;7.786;2023-04-15T03:17:30;97748.88;;;7.43;53.22
16544;BME280;8384;47.996;7.786;2023-04-15T03:19:56;97749.44;;;7.45;52.95
16544;BME280;8384;47.996;7.786;2023-04-15T03:22:21;97769.84;;;7.53;53.22
16544;BME280;8384;47.996;7.786;2023-04-15T03:24:46;97761.44;;;7.55;53.22
16544;BME280;8384;47.996;7.786;2023-04-15T03:27:12;97764.13;;;7.49;53.30
16544;BME280;8384;47.996;7.786;2023-04-15T03:29:37;97744.25;;;7.49;53.08
16544;BME280;8384;47.996;7.786;2023-04-15T03:32:03;97767.06;;;7.38;53.13
16544;BME280;8384;47.996;7.786;2023-04-15T03:34:28;97736.34;;;7.37;53.56
16544;BME280;8384;47.996;7.786;2023-04-15T03:36:54;97751.03;;;7.41;53.68
16544;BME280;8384;47.996;7.786;2023-04-15T03:39:20;97754.63;;;7.57;54.11
16544;BME280;8384;47.996;7.786;2023-04-15T03:41:45;97739.13;;;7.53;53.64
16544;BME280;8384;47.996;7.786;2023-04-15T03:44:11;97736.66;;;7.51;53.71
16544;BME280;8384;47.996;7.786;2023-04-15T03:46:36;97726.56;;;7.41;53.75
16544;BME280;8384;47.996;7.786;2023-04-15T03:49:01;97734.75;;;7.46;53.42
16544;BME280;8384;47.996;7.786;2023-04-15T03:51:27;97743.19;;;7.50;53.76
16544;BME280;8384;47.996;7.786;2023-04-15T03:53:52;97753.56;;;7.58;53.88
16544;BME280;8384;47.996;7.786;2023-04-15T03:56:17;97747.88;;;7.65;53.34
16544;BME280;8384;47.996;7.786;2023-04-15T03:58:42;97740.47;;;7.50;53.24
16544;BME280;8384;47.996;7.786;2023-04-15T04:01:08;97749.22;;;7.62;53.88
16544;BME280;8384;47.996;7.786;2023-04-15T04:03:33;97750.56;;;7.60;53.93
16544;BME280;8384;47.996;7.786;2023-04-15T04:05:58;97737.75;;;7.50;53.74
16544;BME280;8384;47.996;7.786;2023-04-15T04:08:24;97751.94;;;7.62;53.51
16544;BME280;8384;47.996;7.786;2023-04-15T04:10:49;97746.19;;;7.59;53.72
16544;BME280;8384;47.996;7.786;2023-04-15T04:13:14;97762.03;;;7.72;53.24
16544;BME280;8384;47.996;7.786;2023-04-15T04:15:40;97765.53;;;7.62;53.07
16544;BME280;8384;47.996;7.786;2023-04-15T04:18:06;97763.13;;;7.71;53.44
16544;BME280;8384;47.996;7.786;2023-04-15T04:20:31;97748.38;;;7.57;53.16
16544;BME280;8384;47.996;7.786;2023-04-15T04:22:57;97746.47;;;7.52;53.00
16544;BME280;8384;47.996;7.786;2023-04-15T04:25:22;97771.28;;;7.71;52.71
16544;BME280;8384;47.996;7.786;2023-04-15T04:27:48;97748.09;;;7.53;52.63
16544;BME280;8384;47.996;7.786;2023-04-15T04:30:13;97760.94;;;7.68;52.56
16544;BME280;8384;47.996;7.786;2023-04-15T04:32:39;97777.25;;;7.68;53.16
16544;BME280;8384;47.996;7.786;2023-04-15T04:35:04;97766.28;;;7.42;53.38
16544;BME280;8384;47.996;7.786;2023-04-15T04:37:29;97779.91;;;7.53;53.70
16544;BME280;8384;47.996;7.786;2023-04-15T04:39:55;97760.00;;;7.42;54.68
16544;BME280;8384;47.996;7.786;2023-04-15T04:42:21;97753.94;;;7.24;54.28
16544;BME280;8384;47.996;7.786;2023-04-15T04:44:46;97780.16;;;7.51;54.16
16544;BME280;8384;47.996;7.786;2023-04-15T04:47:11;97781.22;;;7.40;54.68
16544;BME280;8384;47.996;7.786;2023-04-15T04:49:37;97767.22;;;7.15;55.20
16544;BME280;8384;47.996;7.786;2023-04-15T04:52:02;97777.00;;;7.16;55.57
16544;BME280;8384;47.996;7.786;2023-04-15T04:54:27;97791.28;;;7.44;55.37
16544;BME280;8384;47.996;7.786;2023-04-15T04:56:54;97792.44;;;7.54;55.64
16544;BME280;8384;47.996;7.786;2023-04-15T04:59:19;97783.19;;;7.55;55.36
16544;BME280;8384;47.996;7.786;2023-04-15T05:01:44;97801.19;;;7.71;55.16
16544;BME280;8384;47.996;7.786;2023-04-15T05:04:10;97781.72;;;7.31;56.56
16544;BME280;8384;47.996;7.786;2023-04-15T05:06:35;97804.09;;;7.06;59.96
16544;BME280;8384;47.996;7.786;2023-04-15T05:09:01;97795.91;;;6.58;64.58
16544;BME280;8384;47.996;7.786;2023-04-15T05:11:27;97812.00;;;6.70;60.36
16544;BME280;8384;47.996;7.786;2023-04-15T05:13:52;97797.31;;;7.03;59.16
16544;BME280;8384;47.996;7.786;2023-04-15T05:16:18;97792.94;;;7.45;58.43
16544;BME280;8384;47.996;7.786;2023-04-15T05:18:44;97804.94;;;7.60;58.51
16544;BME280;8384;47.996;7.786;2023-04-15T05:21:09;97793.94;;;7.34;61.15
16544;BME280;8384;47.996;7.786;2023-04-15T05:23:34;97801.94;;;7.51;61.05
16544;BME280;8384;47.996;7.786;2023-04-15T05:26:00;97808.56;;;7.76;61.75
16544;BME280;8384;47.996;7.786;2023-04-15T05:28:25;97801.03;;;7.35;63.78
16544;BME280;8384;47.996;7.786;2023-04-15T05:30:51;97805.03;;;7.22;64.37
16544;BME280;8384;47.996;7.786;2023-04-15T05:33:16;97818.44;;;7.39;65.20
16544;BME280;8384;47.996;7.786;2023-04-15T05:35:42;97828.66;;;6.79;69.26
16544;BME280;8384;47.996;7.786;2023-04-15T05:38:07;97834.19;;;6.62;71.17
16544;BME280;8384;47.996;7.786;2023-04-15T05:40:32;97825.59;;;6.70;72.09
16544;BME280;8384;47.996;7.786;2023-04-15T05:42:57;97822.94;;;6.80;72.13
16544;BME280;8384;47.996;7.786;2023-04-15T05:45:22;97822.00;;;6.97;72.00
16544;BME280;8384;47.996;7.786;2023-04-15T05:47:48;97826.25;;;7.25;72.46
16544;BME280;8384;47.996;7.786;2023-04-15T05:50:18;97834.13;;;7.22;72.97
16544;BME280;8384;47.996;7.786;2023-04-15T05:52:43;97835.44;;;7.19;73.64
16544;BME280;8384;47.996;7.786;2023-04-15T05:55:10;97829.75;;;7.20;73.82
16544;BME280;8384;47.996;7.786;2023-04-15T05:57:35;97800.63;;;7.16;74.43
16544;BME280;8384;47.996;7.786;2023-04-15T06:00:02;97828.22;;;7.35;73.34
16544;BME280;8384;47.996;7.786;2023-04-15T06:02:29;97830.75;;;7.52;74.45
16544;BME280;8384;47.996;7.786;2023-04-15T06:04:54;97819.03;;;7.46;72.74
16544;BME280;8384;47.996;7.786;2023-04-15T06:07:19;97829.44;;;7.60;72.92
16544;BME280;8384;47.996;7.786;2023-04-15T06:09:45;97827.56;;;7.71;73.92
16544;BME280;8384;47.996;7.786;2023-04-15T06:12:10;97808.13;;;7.41;74.52
16544;BME280;8384;47.996;7.786;2023-04-15T06:14:37;97834.97;;;7.80;73.88
16544;BME280;8384;47.996;7.786;2023-04-15T06:17:03;97816.75;;;7.81;72.44
16544;BME280;8384;47.996;7.786;2023-04-15T06:19:28;97810.28;;;8.03;71.96
16544;BME280;8384;47.996;7.786;2023-04-15T06:21:54;97828.59;;;8.38;71.37
16544;BME280;8384;47.996;7.786;2023-04-15T06:24:19;97832.44;;;8.43;71.12
16544;BME280;8384;47.996;7.786;2023-04-15T06:26:46;97815.81;;;8.34;71.40
16544;BME280;8384;47.996;7.786;2023-04-15T06:29:11;97833.41;;;8.00;72.27
16544;BME280;8384;47.996;7.786;2023-04-15T06:31:36;97823.94;;;8.18;71.69
16544;BME280;8384;47.996;7.786;2023-04-15T06:34:01;97827.22;;;8.20;71.14
16544;BME280;8384;47.996;7.786;2023-04-15T06:36:27;97832.09;;;8.13;73.09
16544;BME280;8384;47.996;7.786;2023-04-15T06:38:52;97813.28;;;8.01;73.31
16544;BME280;8384;47.996;7.786;2023-04-15T06:41:17;97835.66;;;8.24;71.43
16544;BME280;8384;47.996;7.786;2023-04-15T06:43:43;97812.50;;;8.11;71.29
16544;BME280;8384;47.996;7.786;2023-04-15T06:46:08;97838.50;;;8.60;70.61
16544;BME280;8384;47.996;7.786;2023-04-15T06:48:34;97832.75;;;9.24;67.86
16544;BME280;8384;47.996;7.786;2023-04-15T06:50:59;97831.38;;;9.21;67.29
16544;BME280;8384;47.996;7.786;2023-04-15T06:53:25;97834.09;;;9.21;67.67
16544;BME280;8384;47.996;7.786;2023-04-15T06:55:53;97840.09;;;9.28;66.38
16544;BME280;8384;47.996;7.786;2023-04-15T06:58:18;97833.56;;;9.24;65.46
16544;BME280;8384;47.996;7.786;2023-04-15T07:00:44;97833.59;;;9.04;67.26
16544;BME280;8384;47.996;7.786;2023-04-15T07:03:11;97825.13;;;9.10;66.11
16544;BME280;8384;47.996;7.786;2023-04-15T07:05:37;97839.28;;;9.18;66.49
16544;BME280;8384;47.996;7.786;2023-04-15T07:08:03;97812.28;;;9.16;66.34
16544;BME280;8384;47.996;7.786;2023-04-15T07:10:28;97833.25;;;9.31;66.25
16544;BME280;8384;47.996;7.786;2023-04-15T07:12:54;97831.38;;;9.26;66.93
16544;BME280;8384;47.996;7.786;2023-04-15T07:15:19;97809.84;;;9.14;66.81
16544;BME280;8384;47.996;7.786;2023-04-15T07:17:44;97797.88;;;9.05;67.87
16544;BME280;8384;47.996;7.786;2023-04-15T07:20:10;97824.75;;;9.58;67.11
16544;BME280;8384;47.996;7.786;2023-04-15T07:22:37;97827.25;;;9.44;67.31
16544;BME280;8384;47.996;7.786;2023-04-15T07:25:02;97810.88;;;9.44;67.16
16544;BME280;8384;47.996;7.786;2023-04-15T07:27:28;97799.59;;;9.72;65.15
16544;BME280;8384;47.996;7.786;2023-04-15T07:29:53;97822.50;;;9.76;65.22
16544;BME280;8384;47.996;7.786;2023-04-15T07:32:18;97830.91;;;9.90;64.58
16544;BME280;8384;47.996;7.786;2023-04-15T07:34:44;97828.25;;;9.80;65.57
16544;BME280;8384;47.996;7.786;2023-04-15T07:37:09;97815.31;;;9.20;68.71
16544;BME280;8384;47.996;7.786;2023-04-15T07:39:35;97824.25;;;9.41;68.08
16544;BME280;8384;47.996;7.786;2023-04-15T07:42:01;97819.84;;;9.66;67.31
16544;BME280;8384;47.996;7.786;2023-04-15T07:44:26;97823.16;;;9.42;68.66
16544;BME280;8384;47.996;7.786;2023-04-15T07:46:52;97823.69;;;9.54;68.80
16544;BME280;8384;47.996;7.786;2023-04-15T07:49:17;97825.63;;;9.38;69.69
16544;BME280;8384;47.996;7.786;2023-04-15T07:51:43;97826.38;;;9.65;69.41
16544;BME280;8384;47.996;7.786;2023-04-15T07:54:09;97827.94;;;9.81;68.05
16544;BME280;8384;47.996;7.786;2023-04-15T07:56:34;97825.84;;;9.63;68.99
16544;BME280;8384;47.996;7.786;2023-04-15T07:58:59;97829.34;;;9.73;68.06
16544;BME280;8384;47.996;7.786;2023-04-15T08:01:26;97825.84;;;9.57;68.03
16544;BME280;8384;47.996;7.786;2023-04-15T08:03:51;97825.78;;;9.73;68.02
16544;BME280;8384;47.996;7.786;2023-04-15T08:06:17;97828.50;;;10.33;65.73
16544;BME280;8384;47.996;7.786;2023-04-15T08:08:42;97836.34;;;9.95;66.17
16544;BME280;8384;47.996;7.786;2023-04-15T08:11:08;97834.72;;;10.49;65.06
16544;BME280;8384;47.996;7.786;2023-04-15T08:13:33;97837.22;;;10.86;63.94
16544;BME280;8384;47.996;7.786;2023-04-15T08:18:43;97836.50;;;11.04;61.81
16544;BME280;8384;47.996;7.786;2023-04-15T08:21:09;97850.66;;;10.77;62.91
16544;BME280;8384;47.996;7.786;2023-04-15T08:23:34;97847.00;;;10.52;62.84
16544;BME280;8384;47.996;7.786;2023-04-15T08:26:00;97844.66;;;10.25;64.23
16544;BME280;8384;47.996;7.786;2023-04-15T08:28:25;97854.44;;;10.36;62.94
16544;BME280;8384;47.996;7.786;2023-04-15T08:30:52;97825.31;;;10.71;63.53
16544;BME280;8384;47.996;7.786;2023-04-15T08:33:17;97839.81;;;10.67;64.51
16544;BME280;8384;47.996;7.786;2023-04-15T08:35:42;97862.38;;;10.83;63.52
16544;BME280;8384;47.996;7.786;2023-04-15T08:38:07;97867.88;;;10.77;63.14
16544;BME280;8384;47.996;7.786;2023-04-15T08:40:42;97861.34;;;10.73;63.41
16544;BME280;8384;47.996;7.786;2023-04-15T08:43:27;97873.59;;;10.81;63.21
16544;BME280;8384;47.996;7.786;2023-04-15T08:45:54;97875.28;;;10.77;62.68
16544;BME280;8384;47.996;7.786;2023-04-15T08:48:20;97873.81;;;10.90;62.48
16544;BME280;8384;47.996;7.786;2023-04-15T08:50:48;97875.81;;;11.14;62.46
16544;BME280;8384;47.996;7.786;2023-04-15T08:53:14;97875.81;;;11.14;61.68
16544;BME280;8384;47.996;7.786;2023-04-15T08:55:50;97870.72;;;11.02;61.50
16544;BME280;8384;47.996;7.786;2023-04-15T08:58:15;97879.94;;;11.11;61.68
16544;BME280;8384;47.996;7.786;2023-04-15T09:00:42;97879.84;;;11.21;61.29
16544;BME280;8384;47.996;7.786;2023-04-15T09:03:08;97857.75;;;11.13;60.83
16544;BME280;8384;47.996;7.786;2023-04-15T09:05:37;97889.91;;;11.26;61.49
16544;BME280;8384;47.996;7.786;2023-04-15T09:08:03;97886.09;;;11.57;60.53
16544;BME280;8384;47.996;7.786;2023-04-15T09:10:30;97875.44;;;11.25;60.49
16544;BME280;8384;47.996;7.786;2023-04-15T09:12:56;97894.50;;;11.65;59.98
16544;BME280;8384;47.996;7.786;2023-04-15T09:15:24;97862.38;;;11.47;59.49
16544;BME280;8384;47.996;7.786;2023-04-15T09:17:50;97890.69;;;11.61;58.84
16544;BME280;8384;47.996;7.786;2023-04-15T09:20:15;97869.16;;;11.54;58.01
16544;BME280;8384;47.996;7.786;2023-04-15T09:22:44;97899.75;;;11.86;58.21
16544;BME280;8384;47.996;7.786;2023-04-15T09:27:59;97904.69;;;12.33;56.47
16544;BME280;8384;47.996;7.786;2023-04-15T09:30:26;97917.81;;;11.87;57.68
16544;BME280;8384;47.996;7.786;2023-04-15T09:32:54;97899.13;;;11.94;57.08
16544;BME280;8384;47.996;7.786;2023-04-15T09:35:21;97893.06;;;11.97;57.56
16544;BME280;8384;47.996;7.786;2023-04-15T09:37:47;97898.34;;;12.37;56.83
16544;BME280;8384;47.996;7.786;2023-04-15T09:40:13;97909.41;;;12.89;54.88
16544;BME280;8384;47.996;7.786;2023-04-15T09:42:55;97918.22;;;13.25;51.51
16544;BME280;8384;47.996;7.786;2023-04-15T09:45:20;97916.16;;;12.97;52.51
16544;BME280;8384;47.996;7.786;2023-04-15T09:47:46;97927.03;;;13.41;51.59
16544;BME280;8384;47.996;7.786;2023-04-15T09:50:11;97913.84;;;12.85;52.68
16544;BME280;8384;47.996;7.786;2023-04-15T09:52:41;97924.81;;;13.24;52.65
16544;BME280;8384;47.996;7.786;2023-04-15T09:55:11;97937.66;;;12.90;51.25
16544;BME280;8384;47.996;7.786;2023-04-15T09:57:37;97928.06;;;12.49;54.49
16544;BME280;8384;47.996;7.786;2023-04-15T10:00:07;97934.19;;;13.37;53.57
16544;BME280;8384;47.996;7.786;2023-04-15T10:02:36;97925.19;;;12.98;52.11
16544;BME280;8384;47.996;7.786;2023-04-15T10:05:01;97905.78;;;12.94;51.50
16544;BME280;8384;47.996;7.786;2023-04-15T10:07:27;97912.88;;;13.14;51.05
16544;BME280;8384;47.996;7.786;2023-04-15T10:09:53;97943.13;;;13.47;50.75
16544;BME280;8384;47.996;7.786;2023-04-15T10:12:21;97941.72;;;13.50;50.74
16544;BME280;8384;47.996;7.786;2023-04-15T10:14:48;97942.44;;;14.03;49.62
16544;BME280;8384;47.996;7.786;2023-04-15T10:17:17;97932.25;;;13.56;50.15
16544;BME280;8384;47.996;7.786;2023-04-15T10:19:43;97942.88;;;13.63;51.03
16544;BME280;8384;47.996;7.786;2023-04-15T10:22:09;97941.72;;;13.12;52.82
16544;BME280;8384;47.996;7.786;2023-04-15T10:24:34;97947.28;;;12.87;52.73
16544;BME280;8384;47.996;7.786;2023-04-15T10:27:02;97949.81;;;13.03;52.05
16544;BME280;8384;47.996;7.786;2023-04-15T10:29:28;97912.91;;;12.76;52.44
16544;BME280;8384;47.996;7.786;2023-04-15T10:31:54;97941.63;;;13.36;51.35
16544;BME280;8384;47.996;7.786;2023-04-15T10:34:21;97932.34;;;13.51;49.88
16544;BME280;8384;47.996;7.786;2023-04-15T10:36:47;97934.06;;;14.08;49.47
16544;BME280;8384;47.996;7.786;2023-04-15T10:42:08;97951.38;;;13.94;49.30
16544;BME280;8384;47.996;7.786;2023-04-15T10:44:38;97928.72;;;13.37;50.29
16544;BME280;8384;47.996;7.786;2023-04-15T10:47:09;97955.16;;;14.13;49.57
16544;BME280;8384;47.996;7.786;2023-04-15T10:49:42;97960.34;;;13.67;49.61
16544;BME280;8384;47.996;7.786;2023-04-15T10:52:07;97959.72;;;14.03;48.48
16544;BME280;8384;47.996;7.786;2023-04-15T10:54:32;97970.88;;;13.93;47.94
16544;BME280;8384;47.996;7.786;2023-04-15T10:59:28;97955.88;;;14.32;47.04
16544;BME280;8384;47.996;7.786;2023-04-15T11:02:01;97968.66;;;13.95;48.27
16544;BME280;8384;47.996;7.786;2023-04-15T11:04:58;97978.88;;;14.36;47.36
16544;BME280;8384;47.996;7.786;2023-04-15T11:12:42;97978.91;;;15.15;46.39
16544;BME280;8384;47.996;7.786;2023-04-15T11:15:27;97962.53;;;14.96;45.84
16544;BME280;8384;47.996;7.786;2023-04-15T11:18:08;97990.31;;;15.22;45.49
16544;BME280;8384;47.996;7.786;2023-04-15T11:20:34;97961.19;;;15.75;44.25
16544;BME280;8384;47.996;7.786;2023-04-15T11:22:59;97975.16;;;15.34;44.33
16544;BME280;8384;47.996;7.786;2023-04-15T11:25:26;97978.34;;;14.90;47.05
16544;BME280;8384;47.996;7.786;2023-04-15T11:27:53;97972.81;;;15.04;46.46
16544;BME280;8384;47.996;7.786;2023-04-15T11:30:23;97992.00;;;14.95;47.38
16544;BME280;8384;47.996;7.786;2023-04-15T11:32:50;97992.72;;;14.31;47.93
16544;BME280;8384;47.996;7.786;2023-04-15T11:35:17;97989.06;;;14.50;47.56
16544;BME280;8384;47.996;7.786;2023-04-15T11:37:43;97992.13;;;14.48;47.45
16544;BME280;8384;47.996;7.786;2023-04-15T11:40:09;97991.09;;;14.58;47.36
16544;BME280;8384;47.996;7.786;2023-04-15T11:42:35;97997.41;;;14.73;48.17
16544;BME280;8384;47.996;7.786;2023-04-15T11:45:11;97999.78;;;13.90;48.38
16544;BME280;8384;47.996;7.786;2023-04-15T11:47:37;98004.88;;;13.97;49.45
16544;BME280;8384;47.996;7.786;2023-04-15T11:50:15;98003.91;;;14.35;48.17
16544;BME280;8384;47.996;7.786;2023-04-15T11:52:52;98005.34;;;14.32;47.49
16544;BME280;8384;47.996;7.786;2023-04-15T11:55:17;97997.53;;;14.53;47.13
16544;BME280;8384;47.996;7.786;2023-04-15T11:57:42;98018.00;;;14.75;46.55
16544;BME280;8384;47.996;7.786;2023-04-15T12:00:09;97990.66;;;14.23;47.36
16544;BME280;8384;47.996;7.786;2023-04-15T12:02:36;98019.16;;;14.13;48.58
16544;BME280;8384;47.996;7.786;2023-04-15T12:05:03;98023.34;;;13.77;49.25
16544;BME280;8384;47.996;7.786;2023-04-15T12:07:29;98003.16;;;13.68;49.50
16544;BME280;8384;47.996;7.786;2023-04-15T12:09:55;98033.97;;;13.98;47.83
16544;BME280;8384;47.996;7.786;2023-04-15T12:12:21;98034.97;;;14.21;48.11
16544;BME280;8384;47.996;7.786;2023-04-15T12:14:51;98032.06;;;13.99;47.37
16544;BME280;8384;47.996;7.786;2023-04-15T12:17:16;98006.78;;;13.83;47.83
16544;BME280;8384;47.996;7.786;2023-04-15T12:19:42;98040.66;;;14.25;48.15
16544;BME280;8384;47.996;7.786;2023-04-15T12:22:11;98042.44;;;14.77;46.74
16544;BME280;8384;47.996;7.786;2023-04-15T12:24:38;98045.50;;;14.61;46.56
16544;BME280;8384;47.996;7.786;2023-04-15T12:27:05;98052.53;;;14.67;46.17
16544;BME280;8384;47.996;7.786;2023-04-15T12:29:32;98050.69;;;15.05;44.07
16544;BME280;8384;47.996;7.786;2023-04-15T12:32:09;98031.19;;;15.15;44.32
16544;BME280;8384;47.996;7.786;2023-04-15T12:34:41;98053.31;;;15.24;44.24
16544;BME280;8384;47.996;7.786;2023-04-15T12:37:09;98063.47;;;15.23;43.28
16544;BME280;8384;47.996;7.786;2023-04-15T12:39:36;98053.44;;;15.41;43.01
16544;BME280;8384;47.996;7.786;2023-04-15T12:42:02;98063.19;;;15.25;43.18
16544;BME280;8384;47.996;7.786;2023-04-15T12:44:28;98061.56;;;15.24;42.43
16544;BME280;8384;47.996;7.786;2023-04-15T12:46:54;98063.38;;;15.65;42.57
16544;BME280;8384;47.996;7.786;2023-04-15T12:49:20;98066.97;;;15.66;42.20
16544;BME280;8384;47.996;7.786;2023-04-15T12:51:51;98076.50;;;15.45;41.07
16544;BME280;8384;47.996;7.786;2023-04-15T12:54:17;98076.97;;;15.62;41.16
16544;BME280;8384;47.996;7.786;2023-04-15T12:56:44;98067.00;;;15.52;40.87
16544;BME280;8384;47.996;7.786;2023-04-15T12:59:10;98082.72;;;15.88;40.33
16544;BME280;8384;47.996;7.786;2023-04-15T13:01:36;98087.38;;;15.65;41.12
16544;BME280;8384;47.996;7.786;2023-04-15T13:04:02;98090.75;;;15.84;40.11
16544;BME280;8384;47.996;7.786;2023-04-15T13:06:27;98065.22;;;16.87;38.43
16544;BME280;8384;47.996;7.786;2023-04-15T13:08:53;98084.72;;;18.10;36.96
16544;BME280;8384;47.996;7.786;2023-04-15T13:11:22;98095.31;;;18.73;35.00
16544;BME280;8384;47.996;7.786;2023-04-15T13:13:47;98085.50;;;17.32;35.64
16544;BME280;8384;47.996;7.786;2023-04-15T13:16:12;98091.31;;;17.13;35.93
16544;BME280;8384;47.996;7.786;2023-04-15T13:18:38;98062.34;;;16.52;37.17
16544;BME280;8384;47.996;7.786;2023-04-15T13:21:03;98077.91;;;15.57;39.75
16544;BME280;8384;47.996;7.786;2023-04-15T13:23:31;98084.72;;;15.09;40.32
16544;BME280;8384;47.996;7.786;2023-04-15T13:25:56;98094.16;;;15.30;39.12
16544;BME280;8384;47.996;7.786;2023-04-15T13:28:21;98100.13;;;15.60;38.74